createdAt,value
2018-10-17T00:02:03.942Z,58.60
2018-10-17T00:04:32.254Z,59.00
2018-10-17T00:07:00.955Z,59.60
2018-10-17T00:09:29.217Z,60.00
2018-10-17T00:11:57.454Z,60.30
2018-10-17T00:14:25.771Z,60.20
2018-10-17T00:16:54.145Z,59.80
2018-10-17T00:19:22.429Z,59.50
2018-10-17T00:21:50.618Z,59.40
2018-10-17T00:24:18.899Z,59.30
2018-10-17T00:26:47.242Z,60.00
2018-10-17T00:29:15.561Z,59.80
2018-10-17T00:31:43.727Z,59.60
2018-10-17T00:34:12.023Z,59.70
2018-10-17T00:36:40.231Z,60.00
2018-10-17T00:39:09.850Z,60.20
2018-10-17T00:41:38.143Z,60.30
2018-10-17T00:44:06.407Z,60.50
2018-10-17T00:46:34.628Z,61.00
2018-10-17T00:49:02.925Z,61.10
2018-10-17T00:51:31.128Z,61.50
2018-10-17T00:53:59.503Z,61.60
2018-10-17T00:56:27.770Z,61.70
2018-10-17T00:59:08.400Z,61.40
2018-10-17T01:01:36.942Z,61.20
2018-10-17T01:04:06.348Z,60.80
2018-10-17T01:06:36.055Z,60.60
2018-10-17T01:09:11.446Z,61.00
2018-10-17T01:11:40.591Z,61.00
2018-10-17T01:14:09.222Z,61.10
2018-10-17T01:16:37.523Z,60.90
2018-10-17T01:19:06.247Z,60.50
2018-10-17T01:21:35.179Z,59.60
2018-10-17T01:24:03.408Z,59.10
2018-10-17T01:26:31.670Z,58.60
2018-10-17T01:28:59.966Z,58.50
2018-10-17T01:31:28.249Z,59.30
2018-10-17T01:33:56.536Z,58.60
2018-10-17T01:36:24.737Z,58.80
2018-10-17T01:38:52.958Z,59.10
2018-10-17T01:41:21.182Z,59.30
2018-10-17T01:43:49.454Z,59.40
2018-10-17T01:46:17.672Z,59.20
2018-10-17T01:48:45.927Z,59.20
2018-10-17T01:51:14.149Z,59.30
2018-10-17T01:53:42.371Z,59.30
2018-10-17T01:56:10.617Z,59.40
2018-10-17T01:58:38.826Z,59.10
2018-10-17T02:01:07.138Z,58.80
2018-10-17T02:03:35.312Z,58.60
2018-10-17T02:06:03.565Z,58.00
2018-10-17T02:08:31.789Z,58.20
2018-10-17T02:11:00.177Z,58.40
2018-10-17T02:13:28.366Z,58.20
2018-10-17T02:15:56.586Z,58.00
2018-10-17T02:18:24.850Z,57.80
2018-10-17T02:20:53.122Z,57.80
2018-10-17T02:23:21.398Z,58.20
2018-10-17T02:25:49.642Z,58.40
2018-10-17T02:28:17.923Z,58.70
2018-10-17T02:30:46.142Z,59.40
2018-10-17T02:33:14.403Z,60.20
2018-10-17T02:35:42.679Z,62.00
2018-10-17T02:38:10.923Z,62.70
2018-10-17T02:40:39.195Z,62.90
2018-10-17T02:43:07.415Z,62.30
2018-10-17T02:45:35.676Z,61.00
2018-10-17T02:48:03.943Z,60.60
2018-10-17T02:53:06.838Z,62.40
2018-10-17T02:55:35.078Z,62.90
2018-10-17T02:58:03.304Z,62.30
2018-10-17T03:00:31.675Z,62.80
2018-10-17T03:02:59.945Z,62.60
2018-10-17T03:05:28.219Z,62.10
2018-10-17T03:07:56.516Z,61.60
2018-10-17T03:10:24.772Z,61.60
2018-10-17T03:12:53.054Z,61.30
2018-10-17T03:15:21.311Z,59.90
2018-10-17T03:17:49.575Z,60.30
2018-10-17T03:20:17.977Z,59.20
2018-10-17T03:22:46.217Z,58.90
2018-10-17T03:25:14.522Z,59.00
2018-10-17T03:27:42.753Z,58.70
2018-10-17T03:30:11.088Z,58.60
2018-10-17T03:32:39.355Z,58.60
2018-10-17T03:35:07.651Z,58.70
2018-10-17T03:37:36.310Z,59.10
2018-10-17T03:40:04.915Z,61.30
2018-10-17T03:42:33.171Z,60.80
2018-10-17T03:45:01.450Z,60.90
2018-10-17T03:47:29.700Z,60.90
2018-10-17T03:49:58.048Z,61.10
2018-10-17T03:52:26.223Z,61.40
2018-10-17T03:54:54.539Z,62.10
2018-10-17T03:57:22.675Z,62.20
2018-10-17T03:59:50.912Z,62.00
2018-10-17T04:02:19.191Z,61.50
2018-10-17T04:04:47.400Z,61.20
2018-10-17T04:07:15.677Z,61.10
2018-10-17T04:09:43.947Z,61.10
2018-10-17T04:12:12.176Z,60.70
2018-10-17T04:14:40.378Z,60.40
2018-10-17T04:17:08.752Z,59.90
2018-10-17T04:19:36.928Z,59.70
2018-10-17T04:22:05.331Z,59.50
2018-10-17T04:24:33.677Z,58.40
2018-10-17T04:27:01.942Z,58.20
2018-10-17T04:29:30.187Z,58.10
2018-10-17T04:31:58.432Z,58.00
2018-10-17T04:34:26.737Z,57.50
2018-10-17T04:36:55.078Z,57.60
2018-10-17T04:39:23.374Z,57.30
2018-10-17T04:41:51.620Z,56.90
2018-10-17T04:44:19.885Z,56.90
2018-10-17T04:46:48.099Z,56.80
2018-10-17T04:49:16.357Z,56.90
2018-10-17T04:51:44.563Z,57.10
2018-10-17T04:54:12.791Z,57.50
2018-10-17T04:56:41.045Z,57.80
2018-10-17T04:59:09.289Z,58.90
2018-10-17T05:01:37.557Z,59.10
2018-10-17T05:04:06.279Z,59.50
2018-10-17T05:06:34.615Z,59.50
2018-10-17T05:09:02.908Z,59.50
2018-10-17T05:11:31.130Z,59.60
2018-10-17T05:13:59.375Z,60.40
2018-10-17T05:16:27.639Z,60.60
2018-10-17T05:18:55.962Z,60.70
2018-10-17T05:21:24.186Z,61.10
2018-10-17T05:23:52.527Z,61.20
2018-10-17T05:26:20.747Z,61.20
2018-10-17T05:28:49.027Z,61.20
2018-10-17T05:31:17.328Z,61.20
2018-10-17T05:33:45.607Z,61.20
2018-10-17T05:36:13.824Z,61.20
2018-10-17T05:38:42.094Z,61.20
2018-10-17T05:41:10.380Z,61.20
2018-10-17T05:43:38.602Z,61.60
2018-10-17T05:46:06.927Z,61.60
2018-10-17T05:48:35.203Z,61.50
2018-10-17T05:51:03.426Z,61.20
2018-10-17T05:53:31.678Z,61.10
2018-10-17T05:56:00.022Z,60.70
2018-10-17T05:58:28.255Z,60.60
2018-10-17T06:00:56.645Z,60.10
2018-10-17T06:03:24.935Z,59.90
2018-10-17T06:05:53.158Z,59.90
2018-10-17T06:08:21.437Z,59.70
2018-10-17T06:10:49.716Z,59.40
2018-10-17T06:13:17.970Z,59.40
2018-10-17T06:15:46.165Z,59.30
2018-10-17T06:18:14.404Z,59.30
2018-10-17T06:20:42.661Z,59.60
2018-10-17T06:23:10.976Z,60.00
2018-10-17T06:25:39.133Z,60.20
2018-10-17T06:28:07.454Z,60.30
2018-10-17T06:30:35.748Z,60.30
2018-10-17T06:33:04.160Z,60.40
2018-10-17T06:35:32.453Z,60.30
2018-10-17T06:38:00.820Z,60.20
2018-10-17T06:40:29.074Z,60.00
2018-10-17T06:42:57.351Z,59.80
2018-10-17T06:45:25.577Z,58.80
2018-10-17T06:47:53.803Z,58.30
2018-10-17T06:50:22.088Z,58.30
2018-10-17T06:52:50.361Z,58.30
2018-10-17T06:55:18.737Z,57.90
2018-10-17T06:57:47.926Z,57.70
2018-10-17T07:00:16.572Z,57.00
2018-10-17T07:02:44.906Z,57.10
2018-10-17T07:05:13.367Z,56.20
2018-10-17T07:07:41.407Z,55.30
2018-10-17T07:10:09.781Z,53.90
2018-10-17T07:12:44.763Z,53.10
2018-10-17T07:15:13.099Z,51.60
2018-10-17T07:17:41.272Z,51.00
2018-10-17T07:20:09.956Z,49.80
2018-10-17T07:22:38.219Z,49.50
2018-10-17T07:25:06.640Z,49.10
2018-10-17T07:27:34.791Z,48.30
2018-10-17T07:30:03.046Z,47.30
2018-10-17T07:32:31.269Z,46.80
2018-10-17T07:34:59.504Z,46.10
2018-10-17T07:37:27.726Z,44.70
2018-10-17T07:39:55.943Z,44.40
2018-10-17T07:42:24.222Z,43.00
2018-10-17T07:44:52.534Z,43.50
2018-10-17T07:47:20.771Z,42.90
2018-10-17T07:49:49.011Z,42.10
2018-10-17T07:52:17.223Z,42.10
2018-10-17T07:54:45.496Z,41.80
2018-10-17T07:57:13.724Z,41.40
2018-10-17T07:59:42.104Z,41.80
2018-10-17T08:02:10.280Z,40.70
2018-10-17T08:04:38.648Z,40.80
2018-10-17T08:07:06.831Z,40.20
2018-10-17T08:09:35.077Z,38.30
2018-10-17T08:12:03.394Z,38.40
2018-10-17T08:14:31.674Z,38.70
2018-10-17T08:17:00.039Z,38.40
2018-10-17T08:19:28.318Z,39.30
2018-10-17T08:21:56.615Z,39.20
2018-10-17T08:24:24.837Z,38.70
2018-10-17T08:26:53.094Z,38.20
2018-10-17T08:29:21.351Z,38.60
2018-10-17T08:31:49.564Z,38.00
2018-10-17T08:34:17.874Z,38.10
2018-10-17T08:36:46.556Z,38.40
2018-10-17T08:39:14.538Z,38.20
2018-10-17T08:41:42.884Z,38.20
2018-10-17T08:44:11.295Z,38.10
2018-10-17T08:46:39.557Z,39.10
2018-10-17T08:49:07.857Z,38.80
2018-10-17T08:51:36.099Z,38.60
2018-10-17T08:54:04.590Z,38.20
2018-10-17T08:56:33.199Z,38.50
2018-10-17T08:59:01.449Z,38.40
2018-10-17T09:01:29.726Z,38.40
2018-10-17T09:03:57.994Z,38.70
2018-10-17T09:06:26.226Z,38.90
2018-10-17T09:08:54.476Z,38.40
2018-10-17T09:11:22.755Z,38.50
2018-10-17T09:13:50.986Z,39.10
2018-10-17T09:16:19.321Z,39.10
2018-10-17T09:18:47.543Z,39.20
2018-10-17T09:21:16.041Z,39.20
2018-10-17T09:23:43.995Z,38.90
2018-10-17T09:26:12.207Z,38.50
2018-10-17T09:28:40.684Z,37.50
2018-10-17T09:31:08.898Z,37.40
2018-10-17T09:33:37.092Z,37.00
2018-10-17T09:36:05.416Z,36.70
2018-10-17T09:38:33.644Z,37.00
2018-10-17T09:41:02.027Z,36.00
2018-10-17T09:43:30.298Z,35.20
2018-10-17T09:45:58.604Z,34.40
2018-10-17T09:48:26.851Z,33.90
2018-10-17T09:50:55.128Z,33.60
2018-10-17T09:53:23.577Z,32.80
2018-10-17T09:55:51.763Z,33.30
2018-10-17T09:58:19.980Z,33.70
2018-10-17T10:00:53.578Z,32.70
2018-10-17T10:03:21.815Z,32.60
2018-10-17T10:05:50.109Z,32.30
2018-10-17T10:08:18.385Z,32.10
2018-10-17T10:10:46.707Z,31.80
2018-10-17T10:13:14.947Z,31.50
2018-10-17T10:15:43.215Z,31.50
2018-10-17T10:18:11.510Z,30.60
2018-10-17T10:20:39.746Z,30.30
2018-10-17T10:23:08.012Z,30.60
2018-10-17T10:25:36.259Z,30.00
2018-10-17T10:28:04.699Z,30.00
2018-10-17T10:30:32.887Z,30.90
2018-10-17T10:33:01.156Z,30.40
2018-10-17T10:35:29.643Z,30.10
2018-10-17T10:37:57.988Z,30.70
2018-10-17T10:40:26.350Z,30.80
2018-10-17T10:42:54.571Z,30.50
2018-10-17T10:45:22.888Z,31.80
2018-10-17T10:47:51.102Z,32.70
2018-10-17T10:50:19.384Z,32.70
2018-10-17T10:52:48.723Z,32.40
2018-10-17T10:55:16.896Z,32.40
2018-10-17T10:57:45.151Z,32.50
2018-10-17T11:00:13.544Z,32.70
2018-10-17T11:02:41.621Z,33.30
2018-10-17T11:05:09.893Z,34.30
2018-10-17T11:07:38.071Z,34.50
2018-10-17T11:10:06.571Z,34.20
2018-10-17T11:12:34.836Z,34.20
2018-10-17T11:15:03.265Z,34.20
2018-10-17T11:17:31.436Z,34.20
2018-10-17T11:19:59.694Z,34.70
2018-10-17T11:22:27.930Z,34.40
2018-10-17T11:24:56.207Z,33.80
2018-10-17T11:27:24.445Z,34.20
2018-10-17T11:29:52.834Z,33.40
2018-10-17T11:32:21.112Z,32.50
2018-10-17T11:34:49.351Z,32.70
2018-10-17T11:37:17.673Z,32.50
2018-10-17T11:39:46.021Z,31.80
2018-10-17T11:42:14.364Z,31.70
2018-10-17T11:44:42.704Z,31.80
2018-10-17T11:47:10.994Z,32.30
2018-10-17T11:49:40.175Z,32.70
2018-10-17T11:52:08.706Z,32.10
2018-10-17T11:54:37.019Z,32.00
2018-10-17T11:57:05.392Z,32.20
2018-10-17T11:59:33.827Z,31.90
2018-10-17T12:02:02.107Z,31.30
2018-10-17T12:04:30.626Z,31.20
2018-10-17T12:06:58.667Z,32.30
2018-10-17T12:09:26.928Z,31.70
2018-10-17T12:11:55.294Z,31.30
2018-10-17T12:14:23.474Z,30.70
2018-10-17T12:16:51.784Z,31.00
2018-10-17T12:19:20.151Z,31.20
2018-10-17T12:21:48.771Z,31.60
2018-10-17T12:24:17.207Z,31.10
2018-10-17T12:26:45.387Z,30.40
2018-10-17T12:29:13.655Z,30.60
2018-10-17T12:31:41.928Z,30.90
2018-10-17T12:34:10.167Z,31.20
2018-10-17T12:36:38.390Z,31.10
2018-10-17T12:39:09.181Z,31.00
2018-10-17T12:41:37.632Z,30.70
2018-10-17T12:44:05.876Z,30.30
2018-10-17T12:46:34.147Z,30.10
2018-10-17T12:49:02.416Z,30.10
2018-10-17T12:51:30.589Z,29.40
2018-10-17T12:53:58.881Z,29.60
2018-10-17T12:56:27.112Z,29.90
2018-10-17T12:58:55.445Z,29.80
2018-10-17T13:01:23.720Z,30.10
2018-10-17T13:03:52.286Z,30.50
2018-10-17T13:06:20.539Z,30.20
2018-10-17T13:08:48.912Z,30.00
2018-10-17T13:11:17.314Z,29.90
2018-10-17T13:13:45.391Z,30.00
2018-10-17T13:16:13.684Z,30.00
2018-10-17T13:18:42.130Z,30.20
2018-10-17T13:21:10.450Z,30.10
2018-10-17T13:23:38.790Z,30.10
2018-10-17T13:26:07.228Z,30.20
2018-10-17T13:28:35.473Z,30.10
2018-10-17T13:31:03.790Z,29.90
2018-10-17T13:33:32.003Z,30.20
2018-10-17T13:36:00.251Z,30.40
2018-10-17T13:38:28.530Z,30.20
2018-10-17T13:40:56.835Z,31.20
2018-10-17T13:43:25.148Z,30.70
2018-10-17T13:45:53.644Z,30.20
2018-10-17T13:48:22.107Z,30.40
2018-10-17T13:50:50.361Z,30.00
2018-10-17T13:53:18.757Z,29.30
2018-10-17T13:55:47.126Z,29.80
2018-10-17T13:58:15.398Z,29.30
2018-10-17T14:00:43.605Z,29.20
2018-10-17T14:03:11.861Z,29.60
2018-10-17T14:05:40.112Z,29.90
2018-10-17T14:08:08.432Z,29.50
2018-10-17T14:10:36.764Z,29.90
2018-10-17T14:13:05.045Z,29.90
2018-10-17T14:15:33.308Z,29.70
2018-10-17T14:20:36.466Z,29.50
2018-10-17T14:23:04.749Z,30.30
2018-10-17T14:25:33.083Z,30.60
2018-10-17T14:28:01.351Z,31.40
2018-10-17T14:30:29.726Z,31.50
2018-10-17T14:32:58.000Z,31.70
2018-10-17T14:35:26.297Z,31.70
2018-10-17T14:37:54.613Z,31.70
2018-10-17T14:40:22.959Z,31.90
2018-10-17T14:42:51.242Z,31.90
2018-10-17T14:45:19.689Z,32.10
2018-10-17T14:47:47.976Z,32.60
2018-10-17T14:50:16.263Z,32.90
2018-10-17T14:52:44.527Z,33.00
2018-10-17T14:55:12.779Z,33.40
2018-10-17T14:57:41.063Z,33.30
2018-10-17T15:00:13.864Z,33.60
2018-10-17T15:02:42.393Z,34.10
2018-10-17T15:05:11.272Z,34.40
2018-10-17T15:07:40.598Z,34.50
2018-10-17T15:10:09.188Z,34.60
2018-10-17T15:12:38.015Z,34.90
2018-10-17T15:15:08.060Z,34.70
2018-10-17T15:17:36.250Z,34.60
2018-10-17T15:20:04.934Z,34.60
2018-10-17T15:22:33.182Z,34.60
2018-10-17T15:25:01.422Z,34.60
2018-10-17T15:27:29.822Z,34.60
2018-10-17T15:29:58.370Z,34.60
2018-10-17T15:32:26.643Z,34.70
2018-10-17T15:34:54.968Z,34.80
2018-10-17T15:37:23.225Z,34.80
2018-10-17T15:39:51.425Z,34.90
2018-10-17T15:42:19.804Z,35.10
2018-10-17T15:44:48.043Z,35.20
2018-10-17T15:47:16.599Z,35.20
2018-10-17T15:49:44.941Z,35.30
2018-10-17T15:52:13.358Z,35.50
2018-10-17T15:54:41.838Z,35.60
2018-10-17T15:57:10.231Z,35.60
2018-10-17T15:59:38.450Z,35.90
2018-10-17T16:02:06.888Z,36.10
2018-10-17T16:04:35.402Z,36.40
2018-10-17T16:07:03.849Z,36.60
2018-10-17T16:09:32.164Z,36.80
2018-10-17T16:12:00.962Z,36.90
2018-10-17T16:14:29.279Z,37.20
2018-10-17T16:16:57.663Z,37.30
2018-10-17T16:19:26.127Z,37.50
2018-10-17T16:21:54.543Z,37.60
2018-10-17T16:24:22.840Z,37.90
2018-10-17T16:26:51.544Z,38.20
2018-10-17T16:29:20.027Z,38.50
2018-10-17T16:31:49.071Z,38.70
2018-10-17T16:34:17.423Z,38.70
2018-10-17T16:36:45.977Z,38.70
2018-10-17T16:39:14.232Z,38.90
2018-10-17T16:41:42.631Z,39.40
2018-10-17T16:44:11.139Z,39.30
2018-10-17T16:46:39.380Z,39.70
2018-10-17T16:49:11.010Z,40.00
2018-10-17T16:51:39.355Z,40.60
2018-10-17T16:54:07.700Z,41.10
2018-10-17T16:56:36.038Z,41.10
2018-10-17T16:59:04.419Z,41.20
2018-10-17T17:01:32.740Z,41.60
2018-10-17T17:04:01.003Z,41.50
2018-10-17T17:06:29.234Z,41.90
2018-10-17T17:08:57.485Z,42.20
2018-10-17T17:11:25.750Z,42.40
2018-10-17T17:13:54.001Z,42.40
2018-10-17T17:16:22.303Z,42.80
2018-10-17T17:18:50.645Z,42.80
2018-10-17T17:21:18.938Z,42.80
2018-10-17T17:23:47.204Z,42.90
2018-10-17T17:26:15.496Z,43.00
2018-10-17T17:28:43.727Z,43.20
2018-10-17T17:31:11.977Z,43.20
2018-10-17T17:33:40.223Z,43.20
2018-10-17T17:36:08.465Z,43.70
2018-10-17T17:38:36.846Z,44.00
2018-10-17T17:41:05.276Z,44.30
2018-10-17T17:43:33.531Z,44.90
2018-10-17T17:46:01.811Z,45.70
2018-10-17T17:48:30.082Z,46.10
2018-10-17T17:50:58.379Z,46.10
2018-10-17T17:53:26.676Z,46.10
2018-10-17T17:55:54.916Z,46.20
2018-10-17T17:58:23.208Z,46.40
2018-10-17T18:00:51.420Z,46.30
2018-10-17T18:03:19.668Z,46.50
2018-10-17T18:05:47.969Z,46.80
2018-10-17T18:08:16.274Z,47.00
2018-10-17T18:10:44.516Z,47.30
2018-10-17T18:13:12.975Z,47.50
2018-10-17T18:15:41.561Z,47.60
2018-10-17T18:18:10.110Z,48.00
2018-10-17T18:20:38.566Z,48.10
2018-10-17T18:23:06.861Z,48.20
2018-10-17T18:25:35.091Z,48.70
2018-10-17T18:28:03.517Z,48.70
2018-10-17T18:30:31.611Z,48.70
2018-10-17T18:33:00.005Z,49.10
2018-10-17T18:35:28.299Z,49.20
2018-10-17T18:37:56.556Z,49.60
2018-10-17T18:40:24.901Z,50.00
2018-10-17T18:42:53.240Z,50.30
2018-10-17T18:45:21.516Z,50.50
2018-10-17T18:47:50.226Z,50.60
2018-10-17T18:50:18.525Z,50.60
2018-10-17T18:52:46.923Z,50.80
2018-10-17T18:55:15.204Z,51.10
2018-10-17T18:57:43.504Z,51.20
2018-10-17T19:00:11.742Z,51.70
2018-10-17T19:02:40.099Z,52.00
2018-10-17T19:05:08.372Z,52.30
2018-10-17T19:07:36.603Z,52.70
2018-10-17T19:10:05.291Z,53.00
2018-10-17T19:12:33.544Z,53.20
2018-10-17T19:15:01.849Z,53.50
2018-10-17T19:17:30.090Z,53.70
2018-10-17T19:19:58.478Z,54.00
2018-10-17T19:22:26.790Z,54.10
2018-10-17T19:24:55.026Z,54.20
2018-10-17T19:27:23.362Z,54.30
2018-10-17T19:29:51.624Z,54.10
2018-10-17T19:32:19.887Z,54.20
2018-10-17T19:34:48.144Z,54.50
2018-10-17T19:37:16.407Z,54.60
2018-10-17T19:39:44.799Z,55.10
2018-10-17T19:42:13.136Z,55.60
2018-10-17T19:44:42.213Z,55.50
2018-10-17T19:47:10.535Z,55.50
2018-10-17T19:49:38.836Z,55.80
2018-10-17T19:52:07.153Z,55.70
2018-10-17T19:54:35.364Z,56.00
2018-10-17T19:57:03.638Z,56.50
2018-10-17T19:59:31.890Z,56.90
2018-10-17T20:04:41.810Z,57.60
2018-10-17T20:07:10.103Z,58.20
2018-10-17T20:09:38.355Z,58.50
2018-10-17T20:12:06.636Z,59.00
2018-10-17T20:14:34.915Z,59.20
2018-10-17T20:17:03.215Z,59.40
2018-10-17T20:19:31.547Z,59.70
2018-10-17T20:21:59.879Z,59.70
2018-10-17T20:24:28.122Z,59.60
2018-10-17T20:26:56.475Z,59.90
2018-10-17T20:29:24.724Z,60.00
2018-10-17T20:31:52.976Z,59.90
2018-10-17T20:34:21.195Z,60.20
2018-10-17T20:36:49.474Z,59.80
2018-10-17T20:39:17.787Z,59.70
2018-10-17T20:41:46.031Z,59.60
2018-10-17T20:44:14.356Z,59.30
2018-10-17T20:46:42.675Z,59.20
2018-10-17T20:49:11.025Z,59.40
2018-10-17T20:51:39.279Z,59.70
2018-10-17T20:54:07.800Z,59.70
2018-10-17T20:56:36.038Z,59.70
2018-10-17T20:59:04.677Z,59.70
2018-10-17T21:01:32.931Z,59.20
2018-10-17T21:04:01.185Z,59.10
2018-10-17T21:06:29.398Z,58.50
2018-10-17T21:08:57.651Z,58.10
2018-10-17T21:11:25.992Z,58.00
2018-10-17T21:13:54.183Z,58.60
2018-10-17T21:16:22.479Z,59.40
2018-10-17T21:18:50.821Z,59.80
2018-10-17T21:21:19.029Z,60.20
2018-10-17T21:23:47.259Z,60.30
2018-10-17T21:26:15.686Z,60.10
2018-10-17T21:28:43.876Z,60.30
2018-10-17T21:31:12.131Z,60.10
2018-10-17T21:33:40.404Z,60.00
2018-10-17T21:36:08.669Z,59.50
2018-10-17T21:38:37.025Z,59.70
2018-10-17T21:41:05.279Z,59.70
2018-10-17T21:43:33.543Z,59.80
2018-10-17T21:46:01.791Z,60.00
2018-10-17T21:48:30.091Z,60.50
2018-10-17T21:50:58.315Z,61.10
2018-10-17T21:53:26.536Z,61.20
2018-10-17T21:55:54.862Z,61.30
2018-10-17T21:58:23.068Z,61.20
2018-10-17T22:00:51.341Z,61.30
2018-10-17T22:03:19.639Z,61.50
2018-10-17T22:05:47.899Z,62.20
2018-10-17T22:08:16.292Z,62.00
2018-10-17T22:10:44.458Z,61.90
2018-10-17T22:13:12.695Z,61.40
2018-10-17T22:15:40.954Z,61.10
2018-10-17T22:18:09.285Z,61.60
2018-10-17T22:20:37.599Z,61.90
2018-10-17T22:23:05.848Z,61.80
2018-10-17T22:25:34.130Z,61.30
2018-10-17T22:28:02.427Z,61.00
2018-10-17T22:30:30.686Z,60.70
2018-10-17T22:32:58.935Z,60.50
2018-10-17T22:35:27.234Z,60.50
2018-10-17T22:37:55.609Z,60.80
2018-10-17T22:40:23.890Z,61.10
2018-10-17T22:42:52.152Z,61.70
2018-10-17T22:45:20.429Z,62.00
2018-10-17T22:47:48.704Z,62.30
2018-10-17T22:50:17.115Z,61.90
2018-10-17T22:52:45.261Z,61.90
2018-10-17T22:55:13.552Z,61.80
2018-10-17T22:57:41.771Z,62.10
2018-10-17T23:00:10.456Z,62.30
2018-10-17T23:02:44.762Z,62.60
2018-10-17T23:05:12.956Z,62.50
2018-10-17T23:07:41.215Z,62.90
2018-10-17T23:10:09.454Z,63.10
2018-10-17T23:12:37.671Z,62.90
2018-10-17T23:15:10.191Z,62.40
2018-10-17T23:17:38.399Z,62.90
2018-10-17T23:20:06.843Z,63.10
2018-10-17T23:22:35.431Z,62.60
2018-10-17T23:25:03.758Z,62.30
2018-10-17T23:27:31.994Z,62.30
2018-10-17T23:30:00.223Z,62.40
2018-10-17T23:32:28.506Z,62.40
2018-10-17T23:34:57.515Z,62.80
2018-10-17T23:37:25.746Z,63.00
2018-10-17T23:39:53.980Z,62.70
2018-10-17T23:42:22.217Z,63.00
2018-10-17T23:44:50.452Z,62.60
2018-10-17T23:47:18.727Z,62.60
2018-10-17T23:49:46.985Z,62.80
2018-10-17T23:52:15.289Z,63.00
2018-10-17T23:54:43.724Z,63.10
2018-10-17T23:57:11.963Z,63.10
2018-10-17T23:59:40.227Z,63.00
